Time;durP1;ratioP1;P1;durP2;ratioP2;P2;SDS_P1;SDS_P2;PMS_P1;PMS_P2;Temp;Humidity;BMP_temperature;BMP_pressure;BME280_temperature;BME280_humidity;BME280_pressure;Samples;Min_cycle;Max_cycle;Signal;HPM_P1;HPM_P2
2022/04/04 00:01:31;;;;;;;3.15;1.25;;;8.50;75.70;;;;;;10360896;28;20451;-70
2022/04/04 00:06:33;;;;;;;2.92;1.50;;;8.40;75.70;;;;;;10358752;28;20585;-61
2022/04/04 00:11:33;;;;;;;2.42;1.50;;;8.40;75.70;;;;;;10365329;28;20029;-70
2022/04/04 00:16:34;;;;;;;2.95;1.30;;;8.40;75.80;;;;;;10361576;28;20030;-70
2022/04/04 00:21:36;;;;;;;3.50;1.42;;;8.40;75.70;;;;;;10355495;28;20059;-71
2022/04/04 00:26:36;;;;;;;2.38;1.13;;;8.40;75.70;;;;;;10364696;28;20124;-70
2022/04/04 00:31:37;;;;;;;2.95;1.80;;;8.10;75.60;;;;;;10364985;28;20036;-71
2022/04/04 00:36:39;;;;;;;1.92;1.23;;;8.30;75.70;;;;;;10361486;28;20037;-69
2022/04/04 00:41:39;;;;;;;2.53;1.45;;;8.70;75.90;;;;;;10364185;28;20096;-61
2022/04/04 00:46:42;;;;;;;2.72;1.50;;;8.30;75.70;;;;;;10356438;28;20230;-64
2022/04/04 00:51:43;;;;;;;3.60;1.70;;;8.30;76.30;;;;;;10347983;28;20034;-63
2022/04/04 00:56:45;;;;;;;3.15;1.98;;;8.30;75.70;;;;;;10358270;28;20041;-64
2022/04/04 01:01:46;;;;;;;3.53;2.20;;;8.40;75.70;;;;;;10365009;28;20025;-67
2022/04/04 01:06:47;;;;;;;3.38;1.92;;;8.30;76.30;;;;;;10358862;28;20065;-70
2022/04/04 01:12:12;;;;;;;3.30;2.20;;;8.30;75.70;;;;;;10363492;28;20018;-68
2022/04/04 01:17:18;;;;;;;3.10;2.05;;;8.20;75.70;;;;;;10352088;28;20037;-60
2022/04/04 01:22:19;;;;;;;5.97;2.53;;;8.20;75.60;;;;;;10355541;28;20050;-67
2022/04/04 01:27:20;;;;;;;4.97;2.42;;;8.20;75.60;;;;;;10362755;28;20489;-61
2022/04/04 01:32:20;;;;;;;4.95;2.40;;;8.30;75.70;;;;;;10362375;28;20018;-71
2022/04/04 01:37:21;;;;;;;4.22;2.42;;;8.20;75.70;;;;;;10360802;28;20026;-68
2022/04/04 01:42:22;;;;;;;8.23;3.47;;;8.10;75.60;;;;;;10360651;28;20025;-60
2022/04/04 01:47:22;;;;;;;8.43;3.03;;;8.10;75.70;;;;;;10345471;28;20023;-66
2022/04/04 01:52:23;;;;;;;5.05;2.90;;;8.10;75.70;;;;;;10356599;28;20027;-68
2022/04/04 01:57:24;;;;;;;3.90;2.83;;;8.10;75.70;;;;;;10361923;28;20481;-63
2022/04/04 02:02:24;;;;;;;5.68;2.97;;;8.10;75.70;;;;;;10357342;28;20030;-60
2022/04/04 02:07:25;;;;;;;4.50;2.85;;;8.10;75.80;;;;;;10359243;28;20096;-63
2022/04/04 02:12:26;;;;;;;6.05;3.20;;;8.10;75.80;;;;;;10362834;28;20018;-62
2022/04/04 02:17:28;;;;;;;5.80;3.45;;;8.00;75.80;;;;;;10358910;28;20041;-71
2022/04/04 02:22:28;;;;;;;5.45;2.88;;;8.00;75.80;;;;;;10356200;28;20073;-70
2022/04/04 02:27:29;;;;;;;4.22;2.90;;;8.00;75.80;;;;;;10360941;28;20566;-65
2022/04/04 02:32:31;;;;;;;7.13;3.63;;;8.00;75.80;;;;;;10356171;28;20025;-66
2022/04/04 02:37:32;;;;;;;6.15;3.35;;;8.00;75.90;;;;;;10365020;28;20061;-69
2022/04/04 02:42:33;;;;;;;5.22;2.97;;;8.00;75.90;;;;;;10365217;28;20053;-70
2022/04/04 02:47:33;;;;;;;5.47;3.13;;;8.00;75.90;;;;;;10373864;28;20485;-67
2022/04/04 02:52:34;;;;;;;6.55;3.47;;;8.00;75.90;;;;;;10363587;28;20033;-64
2022/04/04 02:57:35;;;;;;;5.63;3.47;;;8.00;76.00;;;;;;10354139;28;20443;-68
2022/04/04 03:02:36;;;;;;;6.63;3.88;;;8.00;76.00;;;;;;10364378;28;20026;-66
2022/04/04 03:07:37;;;;;;;6.72;3.72;;;8.20;76.10;;;;;;10372109;28;20438;-66
2022/04/04 03:12:42;;;;;;;6.90;3.97;;;7.90;76.00;;;;;;10368295;28;20030;-63
2022/04/04 03:17:44;;;;;;;8.25;3.60;;;7.90;76.10;;;;;;10363353;28;20077;-61
2022/04/04 03:22:51;;;;;;;8.60;4.30;;;7.90;76.10;;;;;;10357743;28;20132;-68
2022/04/04 03:27:53;;;;;;;6.97;3.83;;;7.90;76.20;;;;;;10366305;28;20125;-68
2022/04/04 03:32:57;;;;;;;9.50;4.38;;;8.00;76.20;;;;;;10364695;28;20522;-65
2022/04/04 03:38:00;;;;;;;7.30;3.75;;;8.00;76.30;;;;;;10362200;28;20109;-66
2022/04/04 03:43:01;;;;;;;6.47;4.25;;;7.90;76.30;;;;;;10364709;28;20088;-66
2022/04/04 03:48:02;;;;;;;9.20;4.03;;;7.90;76.30;;;;;;10358493;28;20077;-70
2022/04/04 03:53:04;;;;;;;7.50;3.80;;;7.90;76.30;;;;;;10352632;28;20024;-68
2022/04/04 03:58:08;;;;;;;6.30;3.75;;;7.90;76.40;;;;;;10351695;28;20038;-71
2022/04/04 04:03:09;;;;;;;7.82;3.90;;;7.90;76.40;;;;;;10359852;28;20072;-68
2022/04/04 04:08:10;;;;;;;6.97;4.30;;;7.90;76.40;;;;;;10355815;28;20076;-70
2022/04/04 04:13:10;;;;;;;6.72;3.75;;;7.90;76.40;;;;;;10363931;28;20022;-70
2022/04/04 04:18:11;;;;;;;6.88;3.70;;;7.90;76.40;;;;;;10357211;28;20050;-67
2022/04/04 04:23:13;;;;;;;6.38;3.83;;;7.90;76.50;;;;;;10361016;28;20046;-63
2022/04/04 04:28:18;;;;;;;9.30;4.22;;;7.90;76.50;;;;;;10365172;28;20030;-73
2022/04/04 04:33:19;;;;;;;5.65;3.70;;;7.90;76.50;;;;;;10349065;28;20053;-69
2022/04/04 04:38:19;;;;;;;10.05;4.00;;;8.00;76.70;;;;;;10346515;28;20477;-63
2022/04/04 04:43:20;;;;;;;8.30;4.18;;;8.00;76.70;;;;;;10331378;28;20132;-61
2022/04/04 04:48:21;;;;;;;8.98;4.40;;;8.00;76.70;;;;;;10357613;28;20473;-58
2022/04/04 04:53:22;;;;;;;9.95;4.30;;;7.90;76.80;;;;;;10362603;28;20333;-64
2022/04/04 04:58:22;;;;;;;9.18;4.60;;;8.00;77.20;;;;;;10357432;28;20038;-67
2022/04/04 05:03:26;;;;;;;8.05;4.55;;;8.00;77.00;;;;;;10363711;28;20026;-71
2022/04/04 05:08:27;;;;;;;7.22;4.93;;;8.00;77.10;;;;;;10360088;28;20041;-66
2022/04/04 05:13:28;;;;;;;8.68;4.60;;;8.00;77.30;;;;;;10359546;28;20034;-62
2022/04/04 05:18:28;;;;;;;8.40;4.72;;;8.00;77.40;;;;;;10359762;28;20043;-62
2022/04/04 05:23:29;;;;;;;6.78;4.38;;;8.00;77.40;;;;;;10359653;28;20050;-70
2022/04/04 05:28:30;;;;;;;7.88;5.30;;;7.90;77.40;;;;;;10369023;28;20497;-63
2022/04/04 05:33:31;;;;;;;9.82;4.85;;;7.90;77.40;;;;;;10360687;28;20030;-69
2022/04/04 05:38:33;;;;;;;8.15;5.00;;;8.00;77.50;;;;;;10354442;28;20034;-60
2022/04/04 05:43:34;;;;;;;6.45;4.55;;;7.90;77.40;;;;;;10357277;28;20145;-63
2022/04/04 05:48:34;;;;;;;9.93;4.65;;;7.90;77.40;;;;;;10350370;28;20562;-66
2022/04/04 05:53:35;;;;;;;10.13;4.32;;;7.90;77.50;;;;;;10348524;28;20024;-62
2022/04/04 05:58:37;;;;;;;7.82;4.47;;;8.00;77.60;;;;;;10357840;28;20045;-61
2022/04/04 06:03:38;;;;;;;5.70;4.22;;;7.90;77.50;;;;;;10362716;28;20115;-70
2022/04/04 06:08:38;;;;;;;10.68;3.90;;;7.90;77.50;;;;;;10348789;28;20112;-61
2022/04/04 06:13:40;;;;;;;8.77;4.43;;;8.00;77.50;;;;;;10349777;28;20081;-67
2022/04/04 06:18:42;;;;;;;9.20;5.03;;;8.00;77.60;;;;;;10357784;28;20042;-70
2022/04/04 06:23:42;;;;;;;8.65;4.47;;;8.00;77.50;;;;;;10367694;28;20262;-71
2022/04/04 06:28:52;;;;;;;9.50;4.25;;;8.00;77.50;;;;;;10369520;28;20060;-58
2022/04/04 06:33:53;;;;;;;10.63;4.95;;;8.00;77.70;;;;;;10357670;28;20025;-65
2022/04/04 06:38:54;;;;;;;7.57;4.40;;;7.90;77.60;;;;;;10365307;28;20042;-60
2022/04/04 06:43:55;;;;;;;8.70;4.05;;;7.90;77.70;;;;;;10361729;28;20452;-62
2022/04/04 06:48:56;;;;;;;5.82;4.22;;;8.00;77.80;;;;;;10364882;28;20026;-70
2022/04/04 06:53:57;;;;;;;9.10;4.55;;;7.90;77.90;;;;;;10354406;28;20038;-70
2022/04/04 06:58:58;;;;;;;10.90;4.20;;;8.10;78.40;;;;;;10364642;28;20088;-67
2022/04/04 07:03:59;;;;;;;7.35;4.35;;;8.10;78.20;;;;;;10362928;28;21348;-63
2022/04/04 07:09:00;;;;;;;5.72;4.15;;;8.00;78.20;;;;;;10360551;28;20037;-61
2022/04/04 07:14:02;;;;;;;8.55;4.10;;;8.00;78.20;;;;;;10350103;28;20034;-72
2022/04/04 07:19:03;;;;;;;6.28;3.55;;;8.00;78.30;;;;;;10341724;28;20117;-66
2022/04/04 07:24:04;;;;;;;6.28;4.28;;;8.00;78.40;;;;;;10327053;28;20466;-68
2022/04/04 07:29:04;;;;;;;5.30;3.67;;;8.00;78.40;;;;;;10328769;28;20034;-67
2022/04/04 07:34:05;;;;;;;7.88;4.22;;;8.00;79.10;;;;;;10349081;28;20460;-64
2022/04/04 07:39:07;;;;;;;7.50;4.20;;;8.20;78.70;;;;;;10356778;28;20053;-60
2022/04/04 07:44:08;;;;;;;6.93;4.20;;;8.00;78.70;;;;;;10368404;28;20029;-67
2022/04/04 07:49:09;;;;;;;7.07;4.00;;;8.00;78.80;;;;;;10360301;28;20465;-65
2022/04/04 07:54:11;;;;;;;7.55;4.78;;;8.30;79.40;;;;;;10367770;28;20033;-69
2022/04/04 07:59:11;;;;;;;8.75;5.10;;;8.10;79.10;;;;;;10364538;28;20050;-69
2022/04/04 08:04:12;;;;;;;8.57;4.57;;;8.10;79.20;;;;;;10372198;28;20030;-67
2022/04/04 08:09:13;;;;;;;9.63;5.03;;;9.20;80.00;;;;;;10364318;28;20477;-63
2022/04/04 08:14:14;;;;;;;7.72;4.68;;;8.10;79.40;;;;;;10362872;28;20627;-70
2022/04/04 08:19:15;;;;;;;10.57;5.07;;;8.10;79.40;;;;;;10360296;28;20400;-67
2022/04/04 08:24:16;;;;;;;9.35;4.50;;;8.10;79.40;;;;;;10371507;28;20040;-62
2022/04/04 08:29:17;;;;;;;8.30;4.70;;;8.10;79.60;;;;;;10339629;28;20034;-70
2022/04/04 08:34:18;;;;;;;7.72;4.75;;;8.20;79.80;;;;;;10365011;28;20445;-63
2022/04/04 08:39:18;;;;;;;8.27;4.38;;;8.10;79.80;;;;;;10369086;28;20049;-64
2022/04/04 08:44:20;;;;;;;5.93;3.85;;;8.10;79.80;;;;;;10358968;28;20034;-62
2022/04/04 08:49:20;;;;;;;7.80;4.57;;;8.10;79.90;;;;;;10349245;28;20029;-60
2022/04/04 08:54:21;;;;;;;7.65;4.18;;;8.30;80.00;;;;;;10357228;28;20062;-61
2022/04/04 08:59:22;;;;;;;6.30;4.07;;;8.10;80.10;;;;;;10370716;28;20623;-65
2022/04/04 09:04:23;;;;;;;6.60;3.47;;;8.10;80.20;;;;;;10362751;28;20163;-63
2022/04/04 09:09:44;;;;;;;5.97;3.38;;;8.10;80.40;;;;;;10363094;28;20034;-71
2022/04/04 09:14:51;;;;;;;5.22;2.95;;;8.10;80.80;;;;;;10359586;28;20067;-61
2022/04/04 09:19:51;;;;;;;4.40;2.78;;;8.30;80.70;;;;;;10357648;28;20547;-67
2022/04/04 09:24:57;;;;;;;5.53;2.75;;;8.10;80.70;;;;;;10355117;28;20121;-68
2022/04/04 09:30:07;;;;;;;4.95;2.42;;;8.20;81.00;;;;;;10364196;28;20053;-70
2022/04/04 09:35:18;;;;;;;3.00;2.15;;;8.10;81.00;;;;;;10357955;28;20354;-70
2022/04/04 09:40:21;;;;;;;4.15;2.35;;;8.10;81.00;;;;;;10361885;28;20046;-70
2022/04/04 09:45:24;;;;;;;2.85;1.95;;;8.10;81.10;;;;;;10367006;28;20385;-63
2022/04/04 09:50:31;;;;;;;4.03;1.90;;;8.10;81.10;;;;;;10362459;28;20036;-69
2022/04/04 09:55:37;;;;;;;3.35;2.00;;;8.20;81.50;;;;;;10369613;28;20371;-61
2022/04/04 10:00:39;;;;;;;2.95;1.65;;;8.10;81.30;;;;;;10368484;28;20084;-71
2022/04/04 10:05:42;;;;;;;3.88;1.80;;;8.20;81.40;;;;;;10363137;28;20022;-63
2022/04/04 10:10:44;;;;;;;1.88;1.70;;;8.20;81.40;;;;;;10368842;28;20037;-65
2022/04/04 10:15:45;;;;;;;2.83;1.50;;;8.20;81.50;;;;;;10363374;28;20029;-70
2022/04/04 10:20:53;;;;;;;2.55;1.48;;;8.20;81.60;;;;;;10364745;28;20054;-71
2022/04/04 10:25:55;;;;;;;2.25;1.60;;;8.20;81.70;;;;;;10364718;28;20029;-62
2022/04/04 10:31:19;;;;;;;2.53;1.33;;;8.30;81.90;;;;;;10363274;28;20029;-67
2022/04/04 10:36:24;;;;;;;2.75;1.70;;;8.20;82.30;;;;;;10364670;28;20168;-70
2022/04/04 10:41:30;;;;;;;2.45;1.50;;;8.20;82.00;;;;;;10360052;28;20093;-65
2022/04/04 10:46:30;;;;;;;2.50;1.40;;;8.20;82.10;;;;;;10358194;28;20516;-62
2022/04/04 10:51:33;;;;;;;3.78;1.40;;;8.20;82.10;;;;;;10361511;28;20026;-66
2022/04/04 10:56:41;;;;;;;2.17;1.30;;;8.30;82.10;;;;;;10361154;28;20092;-64
2022/04/04 11:01:43;;;;;;;2.30;1.58;;;8.30;82.20;;;;;;10361567;28;20034;-63
2022/04/04 11:12:14;;;;;;;3.33;1.45;;;8.30;82.40;;;;;;10345962;28;20030;-63
2022/04/04 11:17:19;;;;;;;3.85;1.30;;;8.30;82.70;;;;;;10362885;28;20034;-71
2022/04/04 11:22:25;;;;;;;2.15;1.35;;;8.30;82.70;;;;;;10363618;28;20455;-68
2022/04/04 11:27:27;;;;;;;1.67;1.00;;;8.50;83.00;;;;;;10363511;28;20036;-72
2022/04/04 11:32:31;;;;;;;2.47;1.33;;;8.40;82.90;;;;;;10365766;28;20527;-64
2022/04/04 11:37:39;;;;;;;2.33;1.10;;;8.50;83.10;;;;;;10362831;28;20080;-65
2022/04/04 11:42:45;;;;;;;3.70;1.10;;;8.40;83.10;;;;;;10353741;28;20014;-63
2022/04/04 11:47:57;;;;;;;2.13;1.00;;;8.40;83.40;;;;;;10367937;28;20129;-64
2022/04/04 11:53:02;;;;;;;2.47;1.10;;;8.40;83.70;;;;;;10353291;28;20084;-67
2022/04/04 11:58:10;;;;;;;1.52;1.00;;;8.40;83.50;;;;;;10368454;28;20447;-71
2022/04/04 12:03:12;;;;;;;1.08;0.73;;;8.40;83.60;;;;;;10365670;28;20468;-72
2022/04/04 12:08:15;;;;;;;2.85;1.00;;;8.50;84.30;;;;;;10359008;28;20013;-65
2022/04/04 12:13:21;;;;;;;2.20;0.90;;;8.50;83.90;;;;;;10356985;28;20027;-68
2022/04/04 12:18:25;;;;;;;2.67;0.85;;;8.50;84.10;;;;;;10332722;28;20441;-70
2022/04/04 12:28:48;;;;;;;1.17;0.60;;;8.50;85.10;;;;;;10351818;28;20740;-73
2022/04/04 12:33:53;;;;;;;1.30;1.05;;;8.50;86.10;;;;;;10332594;28;20034;-74
2022/04/04 12:38:58;;;;;;;2.72;0.90;;;8.50;86.10;;;;;;10358879;28;20034;-70
2022/04/04 12:44:03;;;;;;;0.88;0.70;;;8.60;86.70;;;;;;10343980;28;20512;-73
2022/04/04 12:49:08;;;;;;;2.75;0.70;;;8.60;86.70;;;;;;10350539;28;20502;-67
2022/04/04 12:54:09;;;;;;;1.58;0.60;;;8.60;86.80;;;;;;10351220;28;20030;-66
2022/04/04 12:59:12;;;;;;;0.60;0.60;;;8.60;87.40;;;;;;10355299;28;20050;-72
2022/04/04 13:04:19;;;;;;;2.58;0.55;;;8.70;87.40;;;;;;10359588;28;20566;-72
2022/04/04 13:09:27;;;;;;;0.88;0.60;;;8.70;88.00;;;;;;10349246;28;20026;-69
2022/04/04 13:14:45;;;;;;;1.00;0.60;;;8.70;88.20;;;;;;10372326;28;20045;-73
2022/04/04 13:19:46;;;;;;;1.23;0.60;;;8.30;88.20;;;;;;10356341;28;20356;-71
2022/04/04 13:24:47;;;;;;;0.90;0.50;;;8.70;88.20;;;;;;10358236;28;20521;-71
2022/04/04 13:29:47;;;;;;;1.10;0.40;;;8.70;88.40;;;;;;10348461;28;20084;-72
2022/04/04 13:34:48;;;;;;;1.75;0.70;;;8.70;88.60;;;;;;10329225;28;20136;-69
2022/04/04 13:39:49;;;;;;;3.15;0.70;;;8.70;88.70;;;;;;10321004;28;20046;-69
2022/04/04 13:44:51;;;;;;;0.30;0.30;;;9.00;89.00;;;;;;10325664;28;20053;-70
2022/04/04 13:49:52;;;;;;;3.30;0.50;;;8.70;89.00;;;;;;10331183;28;20404;-70
2022/04/04 13:54:53;;;;;;;0.98;0.30;;;8.80;89.20;;;;;;10325563;28;20117;-72
2022/04/04 13:59:54;;;;;;;1.08;0.30;;;8.80;89.30;;;;;;10335178;28;20109;-70
2022/04/04 14:04:55;;;;;;;1.40;0.50;;;8.70;89.50;;;;;;10352458;28;20116;-64
2022/04/04 14:09:57;;;;;;;0.88;0.60;;;8.80;89.60;;;;;;10355023;28;20092;-64
2022/04/04 14:14:58;;;;;;;1.40;0.40;;;8.80;89.60;;;;;;10347092;28;20224;-74
2022/04/04 14:19:59;;;;;;;1.20;0.52;;;8.90;89.90;;;;;;10347247;28;20042;-69
2022/04/04 14:25:00;;;;;;;1.63;0.70;;;8.90;90.10;;;;;;10354228;28;20041;-72
2022/04/04 14:30:01;;;;;;;0.65;0.40;;;8.90;90.20;;;;;;10344994;28;20030;-69
2022/04/04 14:35:01;;;;;;;1.38;0.60;;;8.90;90.20;;;;;;10358246;28;20037;-72
2022/04/04 14:40:03;;;;;;;2.00;0.50;;;8.90;90.20;;;;;;10359837;28;20461;-71
2022/04/04 14:45:05;;;;;;;0.85;0.50;;;8.90;90.10;;;;;;10349754;28;20103;-75
2022/04/04 14:50:09;;;;;;;1.52;0.65;;;8.90;90.10;;;;;;10336312;28;20080;-74
2022/04/04 14:55:12;;;;;;;0.93;0.68;;;8.90;90.10;;;;;;10365452;28;20329;-74
2022/04/04 15:00:14;;;;;;;0.98;0.60;;;8.90;90.10;;;;;;10350010;28;20136;-72
2022/04/04 15:05:15;;;;;;;1.10;0.70;;;9.00;90.30;;;;;;10361884;28;20065;-65
2022/04/04 15:10:18;;;;;;;1.25;0.85;;;9.00;90.30;;;;;;10371083;28;20104;-69
2022/04/04 15:15:18;;;;;;;1.35;0.80;;;9.00;90.30;;;;;;10368801;28;20026;-72
2022/04/04 15:20:19;;;;;;;0.85;0.70;;;9.00;90.30;;;;;;10360300;28;20084;-70
2022/04/04 15:25:20;;;;;;;1.40;1.08;;;9.00;90.30;;;;;;10356794;28;20049;-75
2022/04/04 15:30:21;;;;;;;1.08;0.93;;;9.00;90.50;;;;;;10368839;28;20034;-70
2022/04/04 15:35:22;;;;;;;3.78;1.25;;;9.00;90.50;;;;;;10349917;28;20045;-73
2022/04/04 15:40:24;;;;;;;3.78;1.20;;;9.10;91.20;;;;;;10366418;28;20038;-73
2022/04/04 15:45:27;;;;;;;2.30;1.27;;;9.10;90.80;;;;;;10348881;28;20085;-66
2022/04/04 15:50:28;;;;;;;1.20;1.10;;;9.10;90.80;;;;;;10355280;28;20560;-74
2022/04/04 15:55:28;;;;;;;2.28;1.00;;;9.10;90.90;;;;;;10360151;28;20033;-73
2022/04/04 16:00:31;;;;;;;3.20;1.02;;;9.20;91.00;;;;;;10361713;28;20038;-72
2022/04/04 16:05:32;;;;;;;2.28;0.98;;;9.40;91.00;;;;;;10357235;28;20034;-71
2022/04/04 16:10:33;;;;;;;0.98;0.80;;;9.20;90.90;;;;;;10362034;28;20034;-73
2022/04/04 16:15:33;;;;;;;1.83;1.00;;;9.20;90.90;;;;;;10357899;28;20189;-72
2022/04/04 16:20:36;;;;;;;2.20;0.98;;;9.30;90.90;;;;;;10358691;28;20571;-66
2022/04/04 16:25:37;;;;;;;3.33;1.02;;;9.30;90.90;;;;;;10355828;28;20653;-70
2022/04/04 16:30:38;;;;;;;4.75;1.20;;;9.30;90.80;;;;;;10358350;28;20030;-76
2022/04/04 16:35:39;;;;;;;3.80;1.10;;;9.30;90.80;;;;;;10357018;28;20021;-72
2022/04/04 16:40:42;;;;;;;1.63;0.80;;;9.30;90.90;;;;;;10350920;28;20496;-68
2022/04/04 16:45:43;;;;;;;2.08;1.30;;;9.30;90.90;;;;;;10342724;28;20054;-67
2022/04/04 16:50:45;;;;;;;2.92;1.40;;;9.30;90.90;;;;;;10342541;28;20108;-70
2022/04/04 16:55:45;;;;;;;1.52;1.10;;;9.40;91.60;;;;;;10363443;28;20042;-72
2022/04/04 17:00:46;;;;;;;2.38;1.20;;;9.30;91.50;;;;;;10351471;28;20115;-72
2022/04/04 17:05:47;;;;;;;2.97;1.70;;;9.70;91.50;;;;;;10362483;28;20028;-70
2022/04/04 17:10:48;;;;;;;3.38;1.23;;;9.30;91.40;;;;;;10364078;28;20042;-71
2022/04/04 17:15:49;;;;;;;2.70;1.23;;;9.30;91.40;;;;;;10359313;28;20030;-72
2022/04/04 17:20:50;;;;;;;2.55;1.48;;;9.50;91.70;;;;;;10360365;28;20065;-75
2022/04/04 17:25:51;;;;;;;4.22;1.50;;;9.40;91.40;;;;;;10357667;28;20045;-73
2022/04/04 17:30:53;;;;;;;3.95;1.55;;;9.30;91.40;;;;;;10348873;28;20092;-73
2022/04/04 17:35:54;;;;;;;2.33;1.30;;;9.40;91.40;;;;;;10352471;28;20034;-71
2022/04/04 17:40:55;;;;;;;2.92;1.27;;;9.40;91.40;;;;;;10357896;28;20712;-75
2022/04/04 17:45:55;;;;;;;4.40;1.30;;;9.40;91.40;;;;;;10355524;28;20041;-72
2022/04/04 17:50:56;;;;;;;4.13;1.52;;;9.30;91.40;;;;;;10359757;28;20030;-76
2022/04/04 17:55:57;;;;;;;3.47;1.08;;;9.30;91.40;;;;;;10342344;28;20045;-71
2022/04/04 18:00:58;;;;;;;5.78;1.42;;;9.30;91.30;;;;;;10344499;28;20574;-74
2022/04/04 18:05:58;;;;;;;4.05;1.40;;;9.30;91.40;;;;;;10340211;28;20037;-71
2022/04/04 18:11:00;;;;;;;5.30;1.50;;;9.30;91.60;;;;;;10347714;28;20030;-70
2022/04/04 18:16:00;;;;;;;3.13;1.30;;;9.40;91.40;;;;;;10344878;28;20361;-69
2022/04/04 18:21:04;;;;;;;3.53;1.30;;;9.40;91.40;;;;;;10339810;28;20061;-71
2022/04/04 18:26:07;;;;;;;4.97;1.40;;;9.30;91.40;;;;;;10361769;28;20026;-74
2022/04/04 18:31:11;;;;;;;5.93;1.40;;;9.30;91.30;;;;;;10344515;28;20439;-71
2022/04/04 18:36:11;;;;;;;4.28;1.88;;;9.40;91.80;;;;;;10348978;28;20633;-75
2022/04/04 18:41:12;;;;;;;4.10;1.50;;;9.40;91.90;;;;;;10355003;28;20141;-72
2022/04/04 18:46:14;;;;;;;6.32;2.00;;;9.50;91.90;;;;;;10351484;28;20086;-71
2022/04/04 18:51:14;;;;;;;4.55;1.50;;;9.40;91.80;;;;;;10358709;28;20105;-73
2022/04/04 18:56:16;;;;;;;3.75;1.85;;;9.50;91.80;;;;;;10360258;28;20030;-71
2022/04/04 19:01:17;;;;;;;5.70;1.60;;;9.50;91.80;;;;;;10355071;28;20080;-71
2022/04/04 19:06:18;;;;;;;4.78;1.48;;;9.40;91.80;;;;;;10353936;28;20083;-71
2022/04/04 19:11:18;;;;;;;3.00;1.50;;;9.40;92.10;;;;;;10352775;28;20026;-71
2022/04/04 19:16:19;;;;;;;4.60;1.30;;;9.40;91.80;;;;;;10344274;28;20035;-75
2022/04/04 19:21:20;;;;;;;5.15;1.42;;;9.40;91.70;;;;;;10332158;28;20402;-74
2022/04/04 19:26:20;;;;;;;4.93;1.58;;;9.40;91.80;;;;;;10329157;28;20788;-76
2022/04/04 19:31:22;;;;;;;4.35;1.15;;;9.40;91.60;;;;;;10344606;28;20034;-75
2022/04/04 19:36:23;;;;;;;3.58;1.40;;;9.40;91.60;;;;;;10343892;28;20036;-73
2022/04/04 19:41:24;;;;;;;4.65;1.45;;;9.40;91.80;;;;;;10331176;28;20042;-67
2022/04/04 19:46:24;;;;;;;5.95;1.23;;;9.40;91.80;;;;;;10341739;28;20744;-68
2022/04/04 19:51:25;;;;;;;8.43;1.45;;;9.40;91.80;;;;;;10351117;28;20121;-68
2022/04/04 19:56:26;;;;;;;3.80;1.35;;;9.40;91.90;;;;;;10352783;28;20052;-72
2022/04/04 20:01:27;;;;;;;4.68;1.65;;;9.40;91.90;;;;;;10342259;28;20109;-71
2022/04/04 20:06:28;;;;;;;5.07;1.70;;;9.40;92.00;;;;;;10333810;28;20034;-70
2022/04/04 20:11:28;;;;;;;4.78;1.25;;;9.40;92.10;;;;;;10329199;28;20089;-72
2022/04/04 20:16:29;;;;;;;3.83;1.38;;;9.40;92.10;;;;;;10333254;28;20037;-66
2022/04/04 20:21:30;;;;;;;3.50;1.20;;;9.40;92.20;;;;;;10328952;28;20444;-71
2022/04/04 20:26:31;;;;;;;5.20;1.35;;;9.40;92.20;;;;;;10342244;28;20026;-72
2022/04/04 20:31:32;;;;;;;5.00;1.38;;;9.40;92.30;;;;;;10353927;28;20030;-66
2022/04/04 20:36:32;;;;;;;2.08;1.13;;;9.40;92.30;;;;;;10363843;28;20029;-69
2022/04/04 20:41:33;;;;;;;3.10;1.00;;;9.40;92.30;;;;;;10350006;28;20128;-69
2022/04/04 20:46:34;;;;;;;4.25;1.25;;;9.40;92.40;;;;;;10360304;28;20036;-68
2022/04/04 20:51:35;;;;;;;4.65;1.17;;;9.40;92.40;;;;;;10371910;28;20550;-68
2022/04/04 20:56:36;;;;;;;5.38;1.58;;;9.40;92.50;;;;;;10372225;28;20037;-66
2022/04/04 21:01:37;;;;;;;3.30;1.10;;;9.40;92.50;;;;;;10348598;28;20100;-71
2022/04/04 21:06:38;;;;;;;2.72;1.10;;;9.40;92.50;;;;;;10358525;28;20030;-70
2022/04/04 21:11:39;;;;;;;5.60;1.20;;;9.40;92.60;;;;;;10349374;28;20026;-71
2022/04/04 21:16:40;;;;;;;2.53;1.05;;;9.40;92.60;;;;;;10363649;28;20084;-73
2022/04/04 21:21:41;;;;;;;4.35;1.25;;;9.40;92.60;;;;;;10337922;28;20046;-73
2022/04/04 21:26:41;;;;;;;2.20;0.80;;;9.40;92.70;;;;;;10328206;28;20037;-73
2022/04/04 21:31:42;;;;;;;3.63;1.13;;;9.40;92.70;;;;;;10331225;28;20021;-75
2022/04/04 21:36:43;;;;;;;4.20;1.02;;;9.40;92.70;;;;;;10340084;28;20039;-67
2022/04/04 21:41:44;;;;;;;3.20;1.75;;;9.40;92.70;;;;;;10342921;28;20464;-73
2022/04/04 21:46:45;;;;;;;3.83;0.90;;;9.40;92.80;;;;;;10349303;28;20096;-68
2022/04/04 21:51:45;;;;;;;4.30;1.27;;;9.30;92.80;;;;;;10353070;28;20548;-72
2022/04/04 21:56:46;;;;;;;2.97;1.00;;;9.30;92.80;;;;;;10345239;28;20038;-68
2022/04/04 22:01:47;;;;;;;1.45;0.70;;;9.30;92.70;;;;;;10357596;28;20042;-74
2022/04/04 22:06:47;;;;;;;2.78;1.30;;;9.30;92.80;;;;;;10343859;28;20037;-69
2022/04/04 22:11:51;;;;;;;1.58;0.80;;;9.40;92.90;;;;;;10333936;28;20088;-71
2022/04/04 22:16:52;;;;;;;1.33;0.82;;;9.30;92.90;;;;;;10359904;28;20029;-68
2022/04/04 22:21:53;;;;;;;2.50;0.90;;;9.30;92.90;;;;;;10361845;28;20073;-72
2022/04/04 22:26:54;;;;;;;3.55;0.90;;;9.30;92.90;;;;;;10367674;28;20014;-70
2022/04/04 22:31:55;;;;;;;3.92;0.65;;;9.30;92.90;;;;;;10363439;28;20485;-69
2022/04/04 22:36:55;;;;;;;1.30;0.80;;;9.30;93.00;;;;;;10355522;28;20036;-69
2022/04/04 22:41:57;;;;;;;2.30;0.93;;;9.30;93.00;;;;;;10360130;28;20059;-67
2022/04/04 22:46:57;;;;;;;2.67;0.73;;;9.30;93.00;;;;;;10363924;28;20030;-70
2022/04/04 22:51:58;;;;;;;1.73;0.70;;;9.30;93.00;;;;;;10356495;28;20042;-71
2022/04/04 22:56:59;;;;;;;1.63;0.60;;;9.30;93.00;;;;;;10363545;28;20420;-71
2022/04/04 23:01:59;;;;;;;3.20;0.90;;;9.30;93.00;;;;;;10360396;28;20113;-74
2022/04/04 23:07:00;;;;;;;2.00;0.75;;;9.30;93.00;;;;;;10350732;28;20034;-71
2022/04/04 23:12:01;;;;;;;2.22;0.80;;;9.30;93.00;;;;;;10362413;28;20030;-74
2022/04/04 23:17:02;;;;;;;2.70;0.82;;;9.30;93.10;;;;;;10362208;28;20111;-70
2022/04/04 23:22:03;;;;;;;2.45;0.68;;;9.30;93.10;;;;;;10362250;28;20053;-74
2022/04/04 23:27:03;;;;;;;1.70;0.73;;;9.30;93.10;;;;;;10365089;28;20488;-74
2022/04/04 23:32:05;;;;;;;1.63;0.57;;;9.30;93.10;;;;;;10363408;28;20025;-70
2022/04/04 23:37:05;;;;;;;2.83;1.05;;;9.30;93.10;;;;;;10361957;28;20034;-69
2022/04/04 23:42:07;;;;;;;2.95;0.68;;;9.30;93.10;;;;;;10378877;28;20030;-71
2022/04/04 23:47:08;;;;;;;2.30;0.60;;;9.30;93.10;;;;;;10354422;28;20034;-70
2022/04/04 23:52:08;;;;;;;1.67;0.70;;;9.30;93.10;;;;;;10347933;28;20038;-71
2022/04/04 23:57:09;;;;;;;1.75;0.65;;;9.30;93.20;;;;;;10371162;28;20187;-76
